createdAt,value
2023-03-05T00:12:17.771Z,41.01
2023-03-05T00:24:58.794Z,25.00
2023-03-05T00:25:58.645Z,25.00
2023-03-05T00:26:58.399Z,25.00
2023-03-05T00:27:58.375Z,25.00
2023-03-05T00:30:18.507Z,25.00
2023-03-05T00:32:46.785Z,25.00
2023-03-05T00:33:46.431Z,25.00
2023-03-05T00:41:35.233Z,25.00
2023-03-05T00:42:34.884Z,25.00
2023-03-05T00:43:35.359Z,25.00
2023-03-05T00:44:34.726Z,25.00
2023-03-05T01:16:34.483Z,25.00
2023-03-05T01:21:10.535Z,25.00
2023-03-05T02:02:31.179Z,25.00
2023-03-05T02:03:34.575Z,25.00
2023-03-05T02:04:34.450Z,25.00
2023-03-05T02:05:34.412Z,25.00
2023-03-05T02:06:34.420Z,25.00
2023-03-05T02:07:34.377Z,25.00
2023-03-05T02:08:34.441Z,22.73
2023-03-05T02:09:49.873Z,0.00
2023-03-05T02:10:34.420Z,0.00
2023-03-05T02:11:34.514Z,0.00
2023-03-05T02:12:34.346Z,10.99
2023-03-05T02:40:36.972Z,25.00
2023-03-05T02:53:26.592Z,25.00
2023-03-05T02:54:26.729Z,25.00
2023-03-05T02:55:26.556Z,25.00
2023-03-05T02:56:26.549Z,25.00
2023-03-05T02:57:26.520Z,25.00
2023-03-05T02:58:26.548Z,14.17
2023-03-05T02:59:26.540Z,25.00
2023-03-05T03:00:26.484Z,35.30
2023-03-05T03:01:26.499Z,39.36
2023-03-05T03:02:26.516Z,22.63
2023-03-05T03:03:26.543Z,30.84
2023-03-05T03:04:26.500Z,44.74
2023-03-05T03:05:26.434Z,55.52
2023-03-05T03:06:26.435Z,51.34
2023-03-05T03:07:26.472Z,66.92
2023-03-05T03:08:26.427Z,81.20
2023-03-05T03:12:26.418Z,42.88
2023-03-05T07:04:47.493Z,25.00
2023-03-05T07:05:47.507Z,25.00
2023-03-05T07:06:47.514Z,0.00
2023-03-05T07:07:47.486Z,0.00
2023-03-05T07:08:47.546Z,0.00
2023-03-05T07:09:47.425Z,0.00
2023-03-05T07:10:47.438Z,0.00
2023-03-05T07:11:47.421Z,0.00
2023-03-05T07:12:47.384Z,0.00
2023-03-05T07:13:47.452Z,0.00
2023-03-05T07:14:47.394Z,0.00
2023-03-05T07:15:47.375Z,0.00
2023-03-05T07:16:47.373Z,0.00
2023-03-05T07:17:47.394Z,0.00
2023-03-05T07:18:47.350Z,0.00
2023-03-05T07:19:47.358Z,0.00
2023-03-05T07:24:07.426Z,25.00
2023-03-05T07:25:07.369Z,25.00
2023-03-05T07:26:07.330Z,25.00
2023-03-05T07:28:07.328Z,25.00
2023-03-05T07:29:07.525Z,25.00
2023-03-05T07:30:07.310Z,25.00
2023-03-05T07:31:07.350Z,25.00
2023-03-05T07:32:07.309Z,25.00
2023-03-05T07:33:07.236Z,27.37
2023-03-05T07:34:07.248Z,39.80
2023-03-05T07:35:07.245Z,20.52
2023-03-05T07:36:07.249Z,25.00
2023-03-05T07:37:07.252Z,36.84
2023-03-05T07:38:07.197Z,50.14
2023-03-05T07:39:07.261Z,17.50
2023-03-05T07:43:47.656Z,25.00
2023-03-05T07:44:47.204Z,25.00
2023-03-05T07:48:09.613Z,25.00
2023-03-05T07:49:07.292Z,25.00
2023-03-05T07:50:05.893Z,25.00
2023-03-05T08:28:34.439Z,25.00
2023-03-05T08:33:35.259Z,25.00
2023-03-05T08:34:33.372Z,25.00
2023-03-05T08:35:33.607Z,25.00
2023-03-05T08:36:33.333Z,25.00
2023-03-05T08:37:33.341Z,25.00
2023-03-05T08:38:33.296Z,25.00
2023-03-05T08:39:33.296Z,25.51
2023-03-05T08:40:33.296Z,32.28
2023-03-05T08:41:33.354Z,25.83
2023-03-05T11:07:15.127Z,25.00
2023-03-05T11:08:14.875Z,25.00
2023-03-05T11:09:15.129Z,25.00
2023-03-05T11:10:14.893Z,25.00
2023-03-05T11:11:14.776Z,25.00
2023-03-05T11:12:14.720Z,0.00
2023-03-05T11:13:14.789Z,0.00
2023-03-05T11:14:14.730Z,0.00
2023-03-05T11:15:14.727Z,0.00
2023-03-05T11:16:14.732Z,0.00
2023-03-05T11:17:14.694Z,0.00
2023-03-05T11:18:14.671Z,0.00
2023-03-05T11:19:14.671Z,0.00
2023-03-05T11:20:14.656Z,0.00
2023-03-05T11:21:14.669Z,0.00
2023-03-05T11:22:14.646Z,0.00
2023-03-05T11:23:14.657Z,0.00
2023-03-05T11:24:14.622Z,0.00
2023-03-05T11:25:14.611Z,0.00
2023-03-05T11:26:14.614Z,0.00
2023-03-05T11:32:15.790Z,25.00
2023-03-05T11:33:15.763Z,25.00
2023-03-05T11:34:15.597Z,25.00
2023-03-05T11:35:15.558Z,25.00
2023-03-05T11:46:35.085Z,20.42
2023-03-05T12:03:14.243Z,25.00
2023-03-05T12:04:14.113Z,25.00
2023-03-05T12:05:13.767Z,25.00
2023-03-05T12:06:13.699Z,25.00
2023-03-05T12:07:13.652Z,25.00
2023-03-05T12:08:13.728Z,64.08
2023-03-05T12:09:13.709Z,0.00
2023-03-05T12:10:13.695Z,3.50
2023-03-05T12:11:13.701Z,0.00
2023-03-05T12:12:13.878Z,16.04
2023-03-05T12:13:13.657Z,50.57
2023-03-05T12:14:13.622Z,26.39
2023-03-05T12:15:13.671Z,65.52
2023-03-05T12:16:13.719Z,65.82
2023-03-05T12:17:13.624Z,76.45
2023-03-05T12:18:13.665Z,11.44
2023-03-05T12:19:13.647Z,34.04
2023-03-05T12:20:13.618Z,43.62
2023-03-05T12:21:13.602Z,26.28
2023-03-05T12:22:13.557Z,0.00
2023-03-05T12:23:13.584Z,50.12
2023-03-05T12:24:13.759Z,70.95
2023-03-05T12:25:13.671Z,156.35
2023-03-05T12:26:13.891Z,112.39
2023-03-05T12:35:44.065Z,25.00
2023-03-05T12:51:20.504Z,25.00
2023-03-05T12:52:22.293Z,25.00
2023-03-05T12:53:20.871Z,25.00
2023-03-05T13:08:16.175Z,25.00
2023-03-05T13:36:22.225Z,25.00
2023-03-05T13:38:25.700Z,25.00
2023-03-05T13:41:44.764Z,25.00
2023-03-05T13:42:44.845Z,25.00
2023-03-05T13:43:44.760Z,25.00
2023-03-05T13:44:44.918Z,25.00
2023-03-05T13:45:44.720Z,25.00
2023-03-05T13:46:44.632Z,27.59
2023-03-05T13:47:44.642Z,0.00
2023-03-05T13:48:44.605Z,0.00
2023-03-05T13:49:44.601Z,14.26
2023-03-05T13:50:44.706Z,0.00
2023-03-05T13:51:44.631Z,13.65
2023-03-05T13:52:44.591Z,54.30
2023-03-05T13:53:44.632Z,0.00
2023-03-05T13:54:44.577Z,4.89
2023-03-05T13:55:44.589Z,12.25
2023-03-05T13:56:44.539Z,72.25
2023-03-05T13:57:44.621Z,121.96
2023-03-05T13:58:44.573Z,52.06
2023-03-05T13:59:44.729Z,103.43
2023-03-05T14:00:44.557Z,119.68
2023-03-05T14:01:44.521Z,82.02
2023-03-05T14:25:23.561Z,25.00
2023-03-05T14:26:23.683Z,25.00
2023-03-05T14:27:23.202Z,25.00
2023-03-05T14:28:23.257Z,25.00
2023-03-05T14:29:23.184Z,25.00
2023-03-05T14:30:23.202Z,0.00
2023-03-05T14:31:23.278Z,23.71
2023-03-05T14:32:23.212Z,23.53
2023-03-05T14:33:23.428Z,45.24
2023-03-05T14:34:23.546Z,7.24
2023-03-05T14:35:23.205Z,0.00
2023-03-05T14:36:23.168Z,33.81
2023-03-05T14:37:23.154Z,77.42
2023-03-05T14:38:23.326Z,102.48
2023-03-05T14:39:23.124Z,99.46
2023-03-05T14:40:23.122Z,61.50
2023-03-05T14:41:23.192Z,45.65
2023-03-05T14:42:23.128Z,89.49
2023-03-05T14:43:23.124Z,26.27
2023-03-05T14:44:23.087Z,26.95
2023-03-05T14:45:23.115Z,27.48
2023-03-05T14:46:23.116Z,51.04
2023-03-05T14:47:23.072Z,81.26
2023-03-05T14:48:23.077Z,88.50
2023-03-05T14:49:23.064Z,80.81
2023-03-05T14:50:23.102Z,101.57
2023-03-05T14:51:23.056Z,154.31
2023-03-05T14:52:23.012Z,131.92
2023-03-05T14:53:23.412Z,137.49
2023-03-05T14:54:23.023Z,91.36
2023-03-05T14:55:23.038Z,109.66
2023-03-05T14:56:22.993Z,164.74
2023-03-05T14:57:22.989Z,164.69
2023-03-05T14:58:23.031Z,186.61
2023-03-05T15:00:43.052Z,25.00
2023-03-05T15:01:43.304Z,25.00
2023-03-05T15:02:43.067Z,25.00
2023-03-05T15:03:42.934Z,25.00
2023-03-05T15:04:42.962Z,25.00
2023-03-05T15:05:43.259Z,17.00
2023-03-05T15:06:43.243Z,0.00
2023-03-05T15:07:43.323Z,0.00
2023-03-05T15:08:42.936Z,0.00
2023-03-05T15:09:42.865Z,0.00
2023-03-05T15:10:42.953Z,0.00
2023-03-05T15:11:42.860Z,16.29
2023-03-05T15:12:42.836Z,33.50
2023-03-05T15:13:42.833Z,29.92
2023-03-05T15:14:42.979Z,12.38
2023-03-05T15:15:42.854Z,4.87
2023-03-05T15:16:42.825Z,32.89
2023-03-05T15:17:42.810Z,35.09
2023-03-05T15:18:42.874Z,66.68
2023-03-05T15:19:42.875Z,100.14
2023-03-05T15:20:42.782Z,102.32
2023-03-05T15:21:42.864Z,123.09
2023-03-05T15:22:42.892Z,152.16
2023-03-05T15:23:42.892Z,130.30
2023-03-05T15:24:42.946Z,93.62
2023-03-05T15:25:42.997Z,88.44
2023-03-05T15:26:43.105Z,83.06
2023-03-05T15:27:43.094Z,104.92
2023-03-05T15:28:43.144Z,53.39
2023-03-05T15:29:43.142Z,56.83
2023-03-05T15:30:43.181Z,43.19
2023-03-05T15:31:43.212Z,53.05
2023-03-05T15:32:43.265Z,25.64
2023-03-05T15:33:43.370Z,31.38
2023-03-05T15:34:43.311Z,35.01
2023-03-05T15:35:43.329Z,47.55
2023-03-05T15:36:43.389Z,71.15
2023-03-05T15:40:22.911Z,25.00
2023-03-05T15:41:23.134Z,25.00
2023-03-05T15:42:22.790Z,25.00
2023-03-05T15:43:22.823Z,25.00
2023-03-05T15:44:22.834Z,25.00
2023-03-05T15:45:22.806Z,13.84
2023-03-05T15:46:22.870Z,35.60
2023-03-05T15:47:22.813Z,46.58
2023-03-05T15:48:22.766Z,84.24
2023-03-05T15:49:22.792Z,87.32
2023-03-05T15:50:22.747Z,80.42
2023-03-05T15:51:22.772Z,65.24
2023-03-05T15:52:22.755Z,87.90
2023-03-05T15:53:23.145Z,104.02
2023-03-05T15:54:22.736Z,95.95
2023-03-05T15:55:22.721Z,119.58
2023-03-05T15:56:22.699Z,117.98
2023-03-05T15:57:22.707Z,67.66
2023-03-05T15:58:22.737Z,58.75
2023-03-05T15:59:22.682Z,97.26
2023-03-05T16:00:23.809Z,86.40
2023-03-05T16:01:22.689Z,78.94
2023-03-05T16:02:22.674Z,66.62
2023-03-05T16:03:22.665Z,38.55
2023-03-05T16:04:22.683Z,1.35
2023-03-05T16:05:22.688Z,0.00
2023-03-05T16:06:22.764Z,0.00
2023-03-05T16:07:23.802Z,0.00
2023-03-05T16:08:22.658Z,24.28
2023-03-05T16:09:22.668Z,53.14
2023-03-05T16:10:22.616Z,88.50
2023-03-05T16:11:22.688Z,122.51
2023-03-05T16:12:22.820Z,144.65
2023-03-05T16:13:22.653Z,119.50
2023-03-05T16:14:22.696Z,94.65
2023-03-05T16:15:22.611Z,58.73
2023-03-05T16:16:22.630Z,45.75
2023-03-05T16:17:22.572Z,40.26
2023-03-05T16:18:22.597Z,75.25
2023-03-05T16:19:22.594Z,106.17
2023-03-05T16:20:22.577Z,105.50
2023-03-05T16:21:22.534Z,83.78
2023-03-05T16:22:22.538Z,48.04
2023-03-05T16:23:22.649Z,51.19
2023-03-05T16:24:22.563Z,28.68
2023-03-05T16:25:22.538Z,25.65
2023-03-05T16:26:22.547Z,25.00
2023-03-05T16:27:22.532Z,69.30
2023-03-05T16:28:22.654Z,106.20
2023-03-05T16:29:22.487Z,138.92
2023-03-05T16:30:22.510Z,175.89
2023-03-05T16:31:22.492Z,206.86
2023-03-05T16:32:22.522Z,174.45
2023-03-05T16:33:22.485Z,180.88
2023-03-05T16:34:22.477Z,185.20
2023-03-05T16:35:22.548Z,168.57
2023-03-05T16:36:22.551Z,162.56
2023-03-05T16:37:22.537Z,136.05
2023-03-05T16:38:22.578Z,170.38
2023-03-05T16:39:22.600Z,166.91
2023-03-05T16:40:22.702Z,218.99
2023-03-05T16:41:24.164Z,223.59
2023-03-05T16:42:22.746Z,236.70
2023-03-05T16:43:22.851Z,220.97
2023-03-05T16:44:23.668Z,207.04
2023-03-05T16:59:29.907Z,25.00
2023-03-05T17:01:50.118Z,25.00
2023-03-05T17:05:29.099Z,25.00
2023-03-05T17:06:29.190Z,25.00
2023-03-05T17:07:29.001Z,25.00
2023-03-05T17:08:28.994Z,25.00
2023-03-05T17:09:28.970Z,25.00
2023-03-05T17:10:28.962Z,43.30
2023-03-05T17:11:28.980Z,32.76
2023-03-05T17:12:28.966Z,14.21
2023-03-05T17:15:30.413Z,25.00
2023-03-05T17:16:30.815Z,25.00
2023-03-05T17:17:35.380Z,25.00
2023-03-05T17:18:31.309Z,25.00
2023-03-05T17:20:50.284Z,25.00
2023-03-05T17:21:50.087Z,25.00
2023-03-05T17:22:50.119Z,25.00
2023-03-05T17:29:30.062Z,25.00
2023-03-05T17:30:29.853Z,25.00
2023-03-05T17:31:29.809Z,25.00
2023-03-05T17:32:30.678Z,25.00
2023-03-05T17:33:29.848Z,25.00
2023-03-05T17:34:36.153Z,69.12
2023-03-05T17:35:30.948Z,70.56
2023-03-05T17:37:50.561Z,25.00
2023-03-05T20:47:27.067Z,25.00
2023-03-05T20:50:01.827Z,25.00
2023-03-05T20:53:09.304Z,25.00
2023-03-05T20:59:10.119Z,25.00
2023-03-05T21:16:40.070Z,25.00
2023-03-05T21:17:39.975Z,25.00
2023-03-05T21:20:00.415Z,25.00
2023-03-05T21:21:00.163Z,25.00
2023-03-05T21:22:00.297Z,25.00
2023-03-05T21:23:00.110Z,25.00
2023-03-05T22:25:06.027Z,25.00
2023-03-05T22:27:30.923Z,25.00
2023-03-05T22:31:09.947Z,25.00
2023-03-05T22:32:10.363Z,25.00
2023-03-05T22:33:09.760Z,25.00
2023-03-05T22:34:10.004Z,25.00
2023-03-05T22:35:09.828Z,25.00
2023-03-05T22:36:09.866Z,5.75
2023-03-05T22:37:10.065Z,3.43
2023-03-05T22:39:29.721Z,25.00
2023-03-05T22:40:29.764Z,25.00
2023-03-05T22:41:33.737Z,25.00
2023-03-05T22:42:30.520Z,25.00
